sensor_id;sensor_type;location;lat;lon;timestamp;P1;durP1;ratioP1;P2;durP2;ratioP2
81716;SDS011;71269;44.108;3.074;2023-09-12T00:01:59;8.02;;;5.97;;
81716;SDS011;71269;44.108;3.074;2023-09-12T00:04:25;10.82;;;6.45;;
81716;SDS011;71269;44.108;3.074;2023-09-12T00:06:50;9.68;;;6.55;;
81716;SDS011;71269;44.108;3.074;2023-09-12T00:09:15;7.75;;;6.30;;
81716;SDS011;71269;44.108;3.074;2023-09-12T00:11:41;9.18;;;6.53;;
81716;SDS011;71269;44.108;3.074;2023-09-12T00:14:08;8.25;;;6.20;;
81716;SDS011;71269;44.108;3.074;2023-09-12T00:16:34;7.80;;;5.75;;
81716;SDS011;71269;44.108;3.074;2023-09-12T00:18:59;8.48;;;5.85;;
81716;SDS011;71269;44.108;3.074;2023-09-12T00:21:25;8.55;;;5.80;;
81716;SDS011;71269;44.108;3.074;2023-09-12T00:23:50;7.72;;;5.90;;
81716;SDS011;71269;44.108;3.074;2023-09-12T00:26:16;8.45;;;6.05;;
81716;SDS011;71269;44.108;3.074;2023-09-12T00:28:41;8.20;;;5.90;;
81716;SDS011;71269;44.108;3.074;2023-09-12T00:31:07;8.55;;;5.80;;
81716;SDS011;71269;44.108;3.074;2023-09-12T00:33:32;8.80;;;5.78;;
81716;SDS011;71269;44.108;3.074;2023-09-12T00:35:58;8.38;;;5.88;;
81716;SDS011;71269;44.108;3.074;2023-09-12T00:38:23;9.45;;;6.70;;
81716;SDS011;71269;44.108;3.074;2023-09-12T00:40:48;9.27;;;5.88;;
81716;SDS011;71269;44.108;3.074;2023-09-12T00:43:14;7.22;;;5.75;;
81716;SDS011;71269;44.108;3.074;2023-09-12T00:45:40;8.00;;;5.82;;
81716;SDS011;71269;44.108;3.074;2023-09-12T00:48:06;8.30;;;5.90;;
81716;SDS011;71269;44.108;3.074;2023-09-12T00:50:32;7.60;;;5.80;;
81716;SDS011;71269;44.108;3.074;2023-09-12T00:52:58;8.02;;;5.80;;
81716;SDS011;71269;44.108;3.074;2023-09-12T00:55:24;8.60;;;5.80;;
81716;SDS011;71269;44.108;3.074;2023-09-12T00:57:50;7.60;;;5.85;;
81716;SDS011;71269;44.108;3.074;2023-09-12T01:00:16;7.93;;;5.38;;
81716;SDS011;71269;44.108;3.074;2023-09-12T01:02:42;6.18;;;5.05;;
81716;SDS011;71269;44.108;3.074;2023-09-12T01:05:09;8.68;;;5.25;;
81716;SDS011;71269;44.108;3.074;2023-09-12T01:07:36;8.77;;;5.38;;
81716;SDS011;71269;44.108;3.074;2023-09-12T01:10:01;9.32;;;4.60;;
81716;SDS011;71269;44.108;3.074;2023-09-12T01:12:28;6.95;;;5.18;;
81716;SDS011;71269;44.108;3.074;2023-09-12T01:14:54;6.85;;;5.00;;
81716;SDS011;71269;44.108;3.074;2023-09-12T01:17:19;7.43;;;5.25;;
81716;SDS011;71269;44.108;3.074;2023-09-12T01:19:45;8.20;;;5.35;;
81716;SDS011;71269;44.108;3.074;2023-09-12T01:27:42;7.03;;;5.03;;
81716;SDS011;71269;44.108;3.074;2023-09-12T01:30:17;7.05;;;4.75;;
81716;SDS011;71269;44.108;3.074;2023-09-12T01:32:45;6.40;;;4.70;;
81716;SDS011;71269;44.108;3.074;2023-09-12T01:35:11;7.65;;;4.55;;
81716;SDS011;71269;44.108;3.074;2023-09-12T01:37:36;7.53;;;4.50;;
81716;SDS011;71269;44.108;3.074;2023-09-12T01:40:02;6.88;;;4.60;;
81716;SDS011;71269;44.108;3.074;2023-09-12T01:42:30;7.30;;;4.50;;
81716;SDS011;71269;44.108;3.074;2023-09-12T01:44:59;6.10;;;4.30;;
81716;SDS011;71269;44.108;3.074;2023-09-12T01:47:26;5.95;;;4.45;;
81716;SDS011;71269;44.108;3.074;2023-09-12T01:49:52;5.28;;;4.50;;
81716;SDS011;71269;44.108;3.074;2023-09-12T01:52:21;6.68;;;4.47;;
81716;SDS011;71269;44.108;3.074;2023-09-12T01:54:46;6.55;;;4.85;;
81716;SDS011;71269;44.108;3.074;2023-09-12T01:57:12;6.45;;;4.40;;
81716;SDS011;71269;44.108;3.074;2023-09-12T01:59:38;6.10;;;4.40;;
81716;SDS011;71269;44.108;3.074;2023-09-12T02:02:04;6.53;;;4.50;;
81716;SDS011;71269;44.108;3.074;2023-09-12T02:04:29;6.57;;;4.57;;
81716;SDS011;71269;44.108;3.074;2023-09-12T02:06:55;8.02;;;4.55;;
81716;SDS011;71269;44.108;3.074;2023-09-12T02:09:20;6.13;;;4.55;;
81716;SDS011;71269;44.108;3.074;2023-09-12T02:11:45;6.47;;;4.32;;
81716;SDS011;71269;44.108;3.074;2023-09-12T02:14:11;6.35;;;4.43;;
81716;SDS011;71269;44.108;3.074;2023-09-12T02:16:37;7.50;;;4.70;;
81716;SDS011;71269;44.108;3.074;2023-09-12T02:19:05;7.72;;;4.65;;
81716;SDS011;71269;44.108;3.074;2023-09-12T02:21:31;5.88;;;4.38;;
81716;SDS011;71269;44.108;3.074;2023-09-12T02:23:56;6.57;;;4.85;;
81716;SDS011;71269;44.108;3.074;2023-09-12T02:26:21;7.15;;;4.60;;
81716;SDS011;71269;44.108;3.074;2023-09-12T02:28:47;6.50;;;4.60;;
81716;SDS011;71269;44.108;3.074;2023-09-12T02:31:12;8.45;;;4.25;;
81716;SDS011;71269;44.108;3.074;2023-09-12T02:33:38;5.97;;;4.20;;
81716;SDS011;71269;44.108;3.074;2023-09-12T02:36:04;6.97;;;4.78;;
81716;SDS011;71269;44.108;3.074;2023-09-12T02:38:30;6.75;;;4.18;;
81716;SDS011;71269;44.108;3.074;2023-09-12T02:40:55;7.28;;;4.85;;
81716;SDS011;71269;44.108;3.074;2023-09-12T02:43:21;6.63;;;4.50;;
81716;SDS011;71269;44.108;3.074;2023-09-12T02:45:46;5.22;;;4.25;;
81716;SDS011;71269;44.108;3.074;2023-09-12T02:48:11;8.05;;;4.47;;
81716;SDS011;71269;44.108;3.074;2023-09-12T02:50:37;5.85;;;4.50;;
81716;SDS011;71269;44.108;3.074;2023-09-12T02:53:03;5.78;;;4.05;;
81716;SDS011;71269;44.108;3.074;2023-09-12T02:55:28;6.15;;;4.20;;
81716;SDS011;71269;44.108;3.074;2023-09-12T02:57:53;6.35;;;4.40;;
81716;SDS011;71269;44.108;3.074;2023-09-12T03:00:19;7.97;;;4.43;;
81716;SDS011;71269;44.108;3.074;2023-09-12T03:02:45;7.95;;;4.47;;
81716;SDS011;71269;44.108;3.074;2023-09-12T03:05:10;5.60;;;4.18;;
81716;SDS011;71269;44.108;3.074;2023-09-12T03:07:36;6.43;;;4.32;;
81716;SDS011;71269;44.108;3.074;2023-09-12T03:10:01;6.65;;;4.38;;
81716;SDS011;71269;44.108;3.074;2023-09-12T03:12:27;6.30;;;4.40;;
81716;SDS011;71269;44.108;3.074;2023-09-12T03:14:52;6.88;;;4.18;;
81716;SDS011;71269;44.108;3.074;2023-09-12T03:17:17;5.40;;;4.38;;
81716;SDS011;71269;44.108;3.074;2023-09-12T03:19:43;5.47;;;4.00;;
81716;SDS011;71269;44.108;3.074;2023-09-12T03:22:08;6.20;;;4.43;;
81716;SDS011;71269;44.108;3.074;2023-09-12T03:24:34;6.75;;;4.57;;
81716;SDS011;71269;44.108;3.074;2023-09-12T03:26:59;6.30;;;4.20;;
81716;SDS011;71269;44.108;3.074;2023-09-12T03:29:25;5.97;;;3.80;;
81716;SDS011;71269;44.108;3.074;2023-09-12T03:31:50;6.13;;;3.95;;
81716;SDS011;71269;44.108;3.074;2023-09-12T03:34:16;6.68;;;4.57;;
81716;SDS011;71269;44.108;3.074;2023-09-12T03:36:41;5.20;;;3.70;;
81716;SDS011;71269;44.108;3.074;2023-09-12T03:39:06;5.32;;;3.75;;
81716;SDS011;71269;44.108;3.074;2023-09-12T03:41:33;7.25;;;4.13;;
81716;SDS011;71269;44.108;3.074;2023-09-12T03:44:02;6.07;;;4.63;;
81716;SDS011;71269;44.108;3.074;2023-09-12T03:46:27;5.93;;;4.65;;
81716;SDS011;71269;44.108;3.074;2023-09-12T03:48:53;7.30;;;4.55;;
81716;SDS011;71269;44.108;3.074;2023-09-12T03:51:18;6.53;;;4.90;;
81716;SDS011;71269;44.108;3.074;2023-09-12T03:53:44;6.60;;;4.30;;
81716;SDS011;71269;44.108;3.074;2023-09-12T03:56:09;5.53;;;3.70;;
81716;SDS011;71269;44.108;3.074;2023-09-12T03:58:39;5.47;;;3.58;;
81716;SDS011;71269;44.108;3.074;2023-09-12T04:01:04;4.57;;;3.40;;
81716;SDS011;71269;44.108;3.074;2023-09-12T04:03:30;5.00;;;3.67;;
81716;SDS011;71269;44.108;3.074;2023-09-12T04:05:55;5.68;;;3.22;;
81716;SDS011;71269;44.108;3.074;2023-09-12T04:08:20;5.80;;;3.65;;
81716;SDS011;71269;44.108;3.074;2023-09-12T04:10:46;5.53;;;3.20;;
81716;SDS011;71269;44.108;3.074;2023-09-12T04:13:11;5.30;;;3.47;;
81716;SDS011;71269;44.108;3.074;2023-09-12T04:15:37;4.72;;;3.40;;
81716;SDS011;71269;44.108;3.074;2023-09-12T04:18:02;5.10;;;3.65;;
81716;SDS011;71269;44.108;3.074;2023-09-12T04:20:28;4.78;;;3.58;;
81716;SDS011;71269;44.108;3.074;2023-09-12T04:22:54;5.88;;;3.40;;
81716;SDS011;71269;44.108;3.074;2023-09-12T04:25:19;6.05;;;3.80;;
81716;SDS011;71269;44.108;3.074;2023-09-12T04:27:45;5.93;;;3.55;;
81716;SDS011;71269;44.108;3.074;2023-09-12T04:30:10;7.63;;;4.00;;
81716;SDS011;71269;44.108;3.074;2023-09-12T04:32:36;7.25;;;3.97;;
81716;SDS011;71269;44.108;3.074;2023-09-12T04:35:01;6.38;;;4.05;;
81716;SDS011;71269;44.108;3.074;2023-09-12T04:37:28;6.35;;;3.90;;
81716;SDS011;71269;44.108;3.074;2023-09-12T04:39:54;5.78;;;3.70;;
81716;SDS011;71269;44.108;3.074;2023-09-12T04:42:19;6.28;;;4.30;;
81716;SDS011;71269;44.108;3.074;2023-09-12T04:44:45;5.15;;;4.13;;
81716;SDS011;71269;44.108;3.074;2023-09-12T04:47:10;6.25;;;3.83;;
81716;SDS011;71269;44.108;3.074;2023-09-12T04:49:35;7.50;;;4.28;;
81716;SDS011;71269;44.108;3.074;2023-09-12T04:52:01;8.32;;;4.40;;
81716;SDS011;71269;44.108;3.074;2023-09-12T04:54:26;5.45;;;3.90;;
81716;SDS011;71269;44.108;3.074;2023-09-12T04:56:52;7.75;;;4.28;;
81716;SDS011;71269;44.108;3.074;2023-09-12T04:59:18;5.85;;;4.28;;
81716;SDS011;71269;44.108;3.074;2023-09-12T05:01:43;6.88;;;4.10;;
81716;SDS011;71269;44.108;3.074;2023-09-12T05:04:08;7.35;;;4.55;;
81716;SDS011;71269;44.108;3.074;2023-09-12T05:06:34;8.95;;;4.75;;
81716;SDS011;71269;44.108;3.074;2023-09-12T05:09:00;6.13;;;3.97;;
81716;SDS011;71269;44.108;3.074;2023-09-12T05:11:26;7.22;;;4.15;;
81716;SDS011;71269;44.108;3.074;2023-09-12T05:13:51;5.85;;;3.72;;
81716;SDS011;71269;44.108;3.074;2023-09-12T05:16:16;5.38;;;3.63;;
81716;SDS011;71269;44.108;3.074;2023-09-12T05:18:42;6.97;;;4.10;;
81716;SDS011;71269;44.108;3.074;2023-09-12T05:21:08;5.22;;;3.70;;
81716;SDS011;71269;44.108;3.074;2023-09-12T05:23:33;5.75;;;3.65;;
81716;SDS011;71269;44.108;3.074;2023-09-12T05:25:59;6.65;;;3.95;;
81716;SDS011;71269;44.108;3.074;2023-09-12T05:28:24;4.80;;;3.63;;
81716;SDS011;71269;44.108;3.074;2023-09-12T05:30:49;6.65;;;4.20;;
81716;SDS011;71269;44.108;3.074;2023-09-12T05:33:15;6.88;;;4.35;;
81716;SDS011;71269;44.108;3.074;2023-09-12T05:35:40;6.80;;;4.13;;
81716;SDS011;71269;44.108;3.074;2023-09-12T05:38:06;7.15;;;4.18;;
81716;SDS011;71269;44.108;3.074;2023-09-12T05:40:31;6.82;;;4.57;;
81716;SDS011;71269;44.108;3.074;2023-09-12T05:42:56;8.70;;;4.50;;
81716;SDS011;71269;44.108;3.074;2023-09-12T05:45:22;7.32;;;4.32;;
81716;SDS011;71269;44.108;3.074;2023-09-12T05:47:48;7.28;;;4.80;;
81716;SDS011;71269;44.108;3.074;2023-09-12T05:50:13;8.00;;;4.45;;
81716;SDS011;71269;44.108;3.074;2023-09-12T05:52:39;6.85;;;4.78;;
81716;SDS011;71269;44.108;3.074;2023-09-12T05:55:04;6.93;;;4.40;;
81716;SDS011;71269;44.108;3.074;2023-09-12T05:57:30;5.93;;;4.40;;
81716;SDS011;71269;44.108;3.074;2023-09-12T05:59:58;7.70;;;4.18;;
81716;SDS011;71269;44.108;3.074;2023-09-12T06:02:25;7.43;;;4.30;;
81716;SDS011;71269;44.108;3.074;2023-09-12T06:04:50;7.88;;;4.32;;
81716;SDS011;71269;44.108;3.074;2023-09-12T06:07:16;6.30;;;4.55;;
81716;SDS011;71269;44.108;3.074;2023-09-12T06:09:41;6.07;;;4.22;;
81716;SDS011;71269;44.108;3.074;2023-09-12T06:12:07;7.63;;;4.70;;
81716;SDS011;71269;44.108;3.074;2023-09-12T06:14:32;7.78;;;4.30;;
81716;SDS011;71269;44.108;3.074;2023-09-12T06:16:58;4.75;;;3.65;;
81716;SDS011;71269;44.108;3.074;2023-09-12T06:19:23;5.28;;;3.53;;
81716;SDS011;71269;44.108;3.074;2023-09-12T06:21:49;4.60;;;3.60;;
81716;SDS011;71269;44.108;3.074;2023-09-12T06:24:19;7.03;;;4.22;;
81716;SDS011;71269;44.108;3.074;2023-09-12T06:26:46;5.85;;;3.40;;
81716;SDS011;71269;44.108;3.074;2023-09-12T06:29:12;6.60;;;3.60;;
81716;SDS011;71269;44.108;3.074;2023-09-12T06:31:38;6.20;;;3.50;;
81716;SDS011;71269;44.108;3.074;2023-09-12T06:34:06;7.70;;;3.60;;
81716;SDS011;71269;44.108;3.074;2023-09-12T06:36:31;7.45;;;3.60;;
81716;SDS011;71269;44.108;3.074;2023-09-12T06:38:58;6.97;;;3.95;;
81716;SDS011;71269;44.108;3.074;2023-09-12T06:41:24;6.65;;;3.75;;
81716;SDS011;71269;44.108;3.074;2023-09-12T06:43:50;7.55;;;3.80;;
81716;SDS011;71269;44.108;3.074;2023-09-12T06:46:15;5.93;;;3.92;;
81716;SDS011;71269;44.108;3.074;2023-09-12T06:48:44;5.72;;;3.60;;
81716;SDS011;71269;44.108;3.074;2023-09-12T06:51:10;5.97;;;3.72;;
81716;SDS011;71269;44.108;3.074;2023-09-12T06:53:36;5.20;;;3.25;;
81716;SDS011;71269;44.108;3.074;2023-09-12T06:56:04;6.05;;;3.40;;
81716;SDS011;71269;44.108;3.074;2023-09-12T06:58:30;8.30;;;3.72;;
81716;SDS011;71269;44.108;3.074;2023-09-12T07:00:55;7.47;;;3.67;;
81716;SDS011;71269;44.108;3.074;2023-09-12T07:03:21;11.13;;;3.55;;
81716;SDS011;71269;44.108;3.074;2023-09-12T07:05:46;9.13;;;3.90;;
81716;SDS011;71269;44.108;3.074;2023-09-12T07:08:11;9.18;;;3.72;;
81716;SDS011;71269;44.108;3.074;2023-09-12T07:10:37;7.85;;;3.90;;
81716;SDS011;71269;44.108;3.074;2023-09-12T07:13:08;7.15;;;3.85;;
81716;SDS011;71269;44.108;3.074;2023-09-12T07:15:35;6.00;;;3.70;;
81716;SDS011;71269;44.108;3.074;2023-09-12T07:18:00;6.25;;;3.50;;
81716;SDS011;71269;44.108;3.074;2023-09-12T07:20:27;8.30;;;3.60;;
81716;SDS011;71269;44.108;3.074;2023-09-12T07:22:52;9.27;;;3.63;;
81716;SDS011;71269;44.108;3.074;2023-09-12T07:25:19;11.20;;;3.75;;
81716;SDS011;71269;44.108;3.074;2023-09-12T07:27:48;11.77;;;4.18;;
81716;SDS011;71269;44.108;3.074;2023-09-12T07:30:14;6.18;;;3.60;;
81716;SDS011;71269;44.108;3.074;2023-09-12T07:32:39;7.25;;;3.53;;
81716;SDS011;71269;44.108;3.074;2023-09-12T07:35:05;11.48;;;3.75;;
